createdAt,value
2022-08-14T00:02:26.907Z,10.55
2022-08-14T00:04:56.620Z,12.15
2022-08-14T00:07:24.455Z,10.77
2022-08-14T00:10:01.403Z,10.45
2022-08-14T00:12:43.656Z,8.15
2022-08-14T00:15:17.307Z,8.15
2022-08-14T00:17:47.514Z,9.05
2022-08-14T00:20:23.780Z,9.13
2022-08-14T00:22:58.399Z,7.68
2022-08-14T00:25:41.704Z,7.95
2022-08-14T00:28:11.305Z,7.95
2022-08-14T00:33:16.148Z,9.35
2022-08-14T00:36:35.631Z,8.70
2022-08-14T00:38:35.267Z,8.50
2022-08-14T00:41:04.536Z,8.43
2022-08-14T00:43:32.750Z,9.52
2022-08-14T00:46:02.760Z,8.73
2022-08-14T00:48:34.664Z,8.13
2022-08-14T00:51:06.798Z,9.10
2022-08-14T00:53:36.457Z,7.45
2022-08-14T00:56:06.889Z,8.52
2022-08-14T00:58:36.416Z,9.18
2022-08-14T01:01:14.614Z,9.35
2022-08-14T01:03:45.494Z,8.35
2022-08-14T01:06:19.138Z,8.90
2022-08-14T01:08:51.577Z,8.88
2022-08-14T01:11:35.267Z,9.15
2022-08-14T01:14:04.750Z,9.07
2022-08-14T01:16:47.379Z,8.35
2022-08-14T01:19:38.850Z,8.93
2022-08-14T01:22:12.643Z,8.50
2022-08-14T01:24:43.582Z,8.88
2022-08-14T01:27:15.276Z,8.55
2022-08-14T01:29:58.192Z,8.15
2022-08-14T01:32:30.048Z,8.63
2022-08-14T01:35:20.627Z,9.32
2022-08-14T01:37:54.611Z,10.35
2022-08-14T01:40:25.648Z,10.55
2022-08-14T01:43:02.912Z,10.50
2022-08-14T01:45:31.533Z,9.88
2022-08-14T01:48:13.308Z,11.07
2022-08-14T01:50:42.814Z,10.95
2022-08-14T01:53:13.585Z,12.10
2022-08-14T01:55:42.294Z,11.07
2022-08-14T01:58:20.079Z,10.85
2022-08-14T02:00:57.212Z,11.40
2022-08-14T02:03:30.202Z,10.63
2022-08-14T02:06:03.918Z,10.85
2022-08-14T02:08:52.564Z,10.82
2022-08-14T02:11:23.798Z,10.73
2022-08-14T02:13:53.326Z,10.90
2022-08-14T02:16:25.391Z,11.45
2022-08-14T02:18:55.358Z,11.15
2022-08-14T02:21:23.805Z,10.48
2022-08-14T02:23:54.518Z,10.90
2022-08-14T02:26:24.622Z,10.40
2022-08-14T02:28:59.726Z,11.10
2022-08-14T02:31:36.038Z,10.88
2022-08-14T02:34:22.261Z,10.30
2022-08-14T02:37:04.987Z,10.98
2022-08-14T02:39:38.411Z,9.85
2022-08-14T02:42:13.090Z,10.23
2022-08-14T02:44:43.078Z,10.43
2022-08-14T02:47:19.100Z,10.60
2022-08-14T02:49:50.777Z,10.15
2022-08-14T02:52:55.698Z,10.25
2022-08-14T02:55:19.668Z,10.43
2022-08-14T02:57:51.914Z,10.57
2022-08-14T03:00:26.370Z,10.40
2022-08-14T03:02:58.599Z,9.52
2022-08-14T03:05:36.213Z,8.68
2022-08-14T03:08:05.760Z,9.73
2022-08-14T03:10:37.095Z,10.18
2022-08-14T03:13:19.123Z,9.65
2022-08-14T03:15:55.888Z,11.07
2022-08-14T03:18:31.649Z,9.82
2022-08-14T03:21:04.826Z,10.65
2022-08-14T03:23:36.620Z,10.02
2022-08-14T03:26:12.586Z,10.63
2022-08-14T03:28:46.909Z,10.48
2022-08-14T03:31:15.460Z,11.80
2022-08-14T03:33:44.369Z,11.18
2022-08-14T03:37:38.359Z,11.07
2022-08-14T03:39:15.589Z,11.20
2022-08-14T03:41:50.638Z,10.90
2022-08-14T03:45:25.164Z,11.52
2022-08-14T03:47:08.134Z,12.85
2022-08-14T03:49:41.985Z,12.95
2022-08-14T03:52:38.453Z,12.68
2022-08-14T03:55:00.201Z,12.18
2022-08-14T03:57:32.341Z,11.38
2022-08-14T04:00:04.614Z,11.10
2022-08-14T04:02:37.714Z,12.27
2022-08-14T04:05:16.537Z,11.43
2022-08-14T04:08:00.220Z,11.55
2022-08-14T04:10:34.506Z,10.70
2022-08-14T04:13:06.114Z,11.35
2022-08-14T04:15:56.514Z,11.20
2022-08-14T04:18:22.367Z,10.95
2022-08-14T04:20:55.038Z,12.35
2022-08-14T04:23:29.626Z,12.02
2022-08-14T04:26:01.627Z,12.25
2022-08-14T04:29:05.439Z,12.98
2022-08-14T04:31:25.041Z,11.65
2022-08-14T04:34:07.957Z,12.20
2022-08-14T04:36:58.140Z,12.95
2022-08-14T04:39:46.848Z,11.23
2022-08-14T04:42:32.500Z,11.45
2022-08-14T04:45:01.792Z,11.50
2022-08-14T04:47:47.685Z,11.40
2022-08-14T04:50:33.796Z,10.15
2022-08-14T04:53:11.017Z,11.20
2022-08-14T04:55:39.056Z,11.10
2022-08-14T04:58:06.966Z,11.00
2022-08-14T05:00:52.212Z,12.15
2022-08-14T05:03:21.451Z,10.68
2022-08-14T05:05:54.546Z,11.68
2022-08-14T05:08:32.430Z,12.13
2022-08-14T05:11:13.374Z,12.18
2022-08-14T05:16:31.707Z,11.25
2022-08-14T05:19:18.266Z,11.18
2022-08-14T05:22:00.059Z,11.32
2022-08-14T05:24:29.408Z,11.63
2022-08-14T05:26:57.510Z,11.30
2022-08-14T05:29:28.338Z,11.82
2022-08-14T05:31:58.269Z,11.95
2022-08-14T05:34:29.578Z,13.55
2022-08-14T05:37:02.204Z,13.02
2022-08-14T05:39:31.579Z,12.48
2022-08-14T05:42:00.581Z,13.02
2022-08-14T05:44:30.910Z,13.85
2022-08-14T05:47:00.546Z,13.00
2022-08-14T05:49:32.973Z,13.57
2022-08-14T05:52:03.098Z,14.23
2022-08-14T05:54:37.980Z,15.02
2022-08-14T05:57:05.973Z,14.60
2022-08-14T05:59:39.248Z,15.70
2022-08-14T06:02:10.322Z,14.80
2022-08-14T06:04:38.692Z,13.73
2022-08-14T06:07:06.523Z,14.25
2022-08-14T06:09:35.388Z,14.40
2022-08-14T06:12:08.644Z,12.95
2022-08-14T06:14:37.043Z,13.30
2022-08-14T06:17:06.656Z,13.88
2022-08-14T06:19:35.799Z,13.15
2022-08-14T06:22:03.754Z,13.43
2022-08-14T06:24:34.774Z,13.60
2022-08-14T06:27:09.778Z,13.82
2022-08-14T06:29:38.644Z,15.32
2022-08-14T06:32:38.691Z,15.95
2022-08-14T06:35:09.677Z,15.35
2022-08-14T06:37:41.664Z,15.40
2022-08-14T06:40:25.497Z,14.85
2022-08-14T06:42:56.667Z,13.48
2022-08-14T06:45:28.174Z,15.00
2022-08-14T06:47:58.732Z,13.75
2022-08-14T06:50:30.241Z,14.55
2022-08-14T06:52:58.636Z,13.68
2022-08-14T06:55:28.229Z,13.23
2022-08-14T06:57:58.117Z,13.18
2022-08-14T07:00:31.202Z,12.57
2022-08-14T07:03:17.032Z,12.93
2022-08-14T07:05:55.342Z,12.73
2022-08-14T07:08:29.689Z,13.52
2022-08-14T07:11:01.077Z,12.55
2022-08-14T07:13:30.727Z,12.18
2022-08-14T07:16:00.609Z,12.45
2022-08-14T07:18:34.476Z,12.07
2022-08-14T07:21:04.592Z,13.52
2022-08-14T07:23:32.938Z,12.63
2022-08-14T07:26:02.224Z,12.88
2022-08-14T07:28:31.409Z,13.32
2022-08-14T07:31:04.845Z,12.55
2022-08-14T07:33:35.262Z,12.15
2022-08-14T07:36:26.421Z,13.02
2022-08-14T07:38:54.865Z,12.98
2022-08-14T07:41:24.007Z,12.68
2022-08-14T07:43:55.325Z,12.23
2022-08-14T07:46:29.351Z,12.32
2022-08-14T07:48:58.984Z,12.98
2022-08-14T07:51:34.502Z,12.73
2022-08-14T07:54:11.456Z,13.15
2022-08-14T07:56:46.709Z,12.13
2022-08-14T07:59:18.288Z,13.32
2022-08-14T08:01:48.291Z,11.57
2022-08-14T08:06:54.106Z,12.82
2022-08-14T08:09:31.965Z,12.80
2022-08-14T08:12:00.883Z,12.95
2022-08-14T08:17:01.489Z,12.93
2022-08-14T08:19:29.416Z,12.55
2022-08-14T08:22:06.069Z,12.35
2022-08-14T08:24:35.753Z,13.07
2022-08-14T08:27:03.784Z,12.50
2022-08-14T08:29:31.599Z,12.55
2022-08-14T08:32:01.923Z,12.95
2022-08-14T08:34:45.340Z,12.32
2022-08-14T08:37:15.749Z,12.50
2022-08-14T08:40:03.144Z,13.10
2022-08-14T08:42:38.734Z,12.65
2022-08-14T08:45:17.308Z,13.70
2022-08-14T08:47:46.593Z,13.43
2022-08-14T08:50:23.181Z,13.02
2022-08-14T08:53:02.011Z,12.05
2022-08-14T08:55:31.766Z,12.00
2022-08-14T08:58:00.570Z,13.13
2022-08-14T09:00:32.475Z,12.50
2022-08-14T09:03:04.269Z,11.32
2022-08-14T09:05:33.052Z,10.45
2022-08-14T09:08:30.203Z,12.07
2022-08-14T09:11:00.578Z,11.15
2022-08-14T09:13:30.677Z,9.65
2022-08-14T09:15:58.842Z,9.63
2022-08-14T09:18:27.373Z,9.52
2022-08-14T09:20:58.882Z,9.82
2022-08-14T09:23:35.118Z,9.73
2022-08-14T09:26:21.077Z,8.70
2022-08-14T09:28:49.884Z,9.38
2022-08-14T09:31:18.462Z,9.52
2022-08-14T09:33:57.518Z,8.82
2022-08-14T09:36:32.045Z,9.23
2022-08-14T09:39:09.621Z,9.05
2022-08-14T09:42:21.621Z,8.90
2022-08-14T09:44:46.306Z,7.68
2022-08-14T09:47:18.740Z,7.35
2022-08-14T09:49:53.071Z,7.32
2022-08-14T09:52:33.023Z,7.97
2022-08-14T09:55:04.764Z,7.53
2022-08-14T09:57:32.562Z,8.32
2022-08-14T10:00:28.844Z,9.30
2022-08-14T10:03:05.184Z,7.53
2022-08-14T10:05:35.057Z,7.00
2022-08-14T10:08:17.626Z,7.53
2022-08-14T10:10:57.027Z,8.18
2022-08-14T10:13:52.418Z,7.43
2022-08-14T10:16:25.965Z,7.85
2022-08-14T10:19:05.239Z,7.38
2022-08-14T10:21:38.500Z,7.78
2022-08-14T10:24:09.637Z,7.90
2022-08-14T10:27:00.549Z,8.25
2022-08-14T10:29:33.801Z,9.55
2022-08-14T10:32:02.958Z,7.63
2022-08-14T10:34:52.735Z,7.93
2022-08-14T10:37:23.736Z,7.18
2022-08-14T10:40:02.193Z,6.82
2022-08-14T10:42:40.257Z,7.70
2022-08-14T10:45:25.959Z,7.47
2022-08-14T10:48:09.466Z,7.75
2022-08-14T10:50:46.456Z,7.47
2022-08-14T10:53:15.329Z,7.68
2022-08-14T10:55:45.616Z,7.60
2022-08-14T10:58:17.694Z,7.50
2022-08-14T11:00:56.824Z,8.30
2022-08-14T11:03:26.634Z,7.65
2022-08-14T11:06:12.688Z,7.88
2022-08-14T11:08:41.676Z,8.32
2022-08-14T11:11:13.494Z,7.07
2022-08-14T11:13:46.271Z,6.95
2022-08-14T11:16:15.267Z,7.15
2022-08-14T11:18:50.609Z,6.95
2022-08-14T11:21:25.428Z,6.88
2022-08-14T11:23:59.281Z,6.82
2022-08-14T11:26:30.022Z,8.35
2022-08-14T11:29:01.386Z,6.53
2022-08-14T11:31:38.776Z,6.60
2022-08-14T11:34:10.344Z,6.78
2022-08-14T11:37:03.895Z,6.95
2022-08-14T11:39:45.527Z,6.47
2022-08-14T11:42:57.687Z,6.53
2022-08-14T11:45:17.053Z,6.03
2022-08-14T11:48:12.594Z,6.40
2022-08-14T11:50:37.155Z,6.40
2022-08-14T11:53:07.087Z,7.03
2022-08-14T11:55:38.431Z,5.88
2022-08-14T11:58:11.000Z,6.10
2022-08-14T12:00:50.124Z,6.28
2022-08-14T12:03:37.421Z,6.25
2022-08-14T12:06:27.827Z,6.30
2022-08-14T12:09:00.073Z,6.28
2022-08-14T12:11:38.268Z,6.15
2022-08-14T12:14:31.096Z,5.18
2022-08-14T12:17:09.497Z,5.90
2022-08-14T12:19:51.348Z,5.30
2022-08-14T12:22:33.262Z,6.00
2022-08-14T12:25:03.358Z,5.32
2022-08-14T12:27:37.872Z,5.35
2022-08-14T12:30:10.275Z,5.93
2022-08-14T12:32:42.008Z,5.30
2022-08-14T12:35:10.674Z,6.63
2022-08-14T12:37:40.124Z,5.93
2022-08-14T12:40:12.801Z,5.45
2022-08-14T12:42:47.599Z,5.07
2022-08-14T12:45:30.407Z,5.50
2022-08-14T12:48:01.805Z,5.78
2022-08-14T12:50:52.476Z,6.07
2022-08-14T12:53:20.950Z,5.88
2022-08-14T12:56:21.328Z,6.15
2022-08-14T12:58:51.981Z,5.25
2022-08-14T13:01:21.556Z,5.20
2022-08-14T13:03:52.743Z,6.50
2022-08-14T13:06:24.459Z,5.47
2022-08-14T13:08:53.663Z,5.60
2022-08-14T13:11:31.201Z,5.57
2022-08-14T13:14:00.492Z,5.73
2022-08-14T13:16:38.291Z,5.55
2022-08-14T13:19:11.135Z,4.95
2022-08-14T13:22:05.474Z,5.18
2022-08-14T13:24:28.257Z,4.90
2022-08-14T13:27:04.385Z,6.13
2022-08-14T13:29:35.493Z,5.75
2022-08-14T13:32:05.802Z,5.47
2022-08-14T13:34:36.768Z,5.45
2022-08-14T13:37:07.377Z,5.60
2022-08-14T13:39:36.707Z,4.50
2022-08-14T13:42:08.772Z,5.38
2022-08-14T13:44:42.794Z,5.95
2022-08-14T13:47:11.332Z,4.72
2022-08-14T13:49:58.064Z,4.80
2022-08-14T13:52:51.403Z,4.75
2022-08-14T13:55:17.873Z,4.85
2022-08-14T13:57:49.489Z,5.75
2022-08-14T14:00:32.536Z,4.95
2022-08-14T14:03:01.430Z,5.07
2022-08-14T14:05:53.065Z,4.90
2022-08-14T14:08:46.995Z,4.82
2022-08-14T14:11:08.074Z,5.28
2022-08-14T14:13:37.223Z,5.00
2022-08-14T14:16:11.320Z,5.95
2022-08-14T14:18:44.021Z,5.57
2022-08-14T14:21:17.839Z,4.65
2022-08-14T14:23:50.035Z,5.07
2022-08-14T14:26:23.490Z,5.28
2022-08-14T14:28:53.059Z,4.82
2022-08-14T14:31:30.384Z,4.53
2022-08-14T14:33:59.724Z,5.05
2022-08-14T14:36:30.599Z,5.10
2022-08-14T14:38:59.352Z,5.25
2022-08-14T14:41:37.740Z,5.15
2022-08-14T14:44:09.207Z,5.05
2022-08-14T14:46:38.388Z,5.00
2022-08-14T14:49:14.446Z,4.90
2022-08-14T14:51:46.779Z,4.35
2022-08-14T14:54:31.118Z,4.78
2022-08-14T14:57:09.256Z,5.18
2022-08-14T14:59:38.445Z,4.78
2022-08-14T15:02:09.097Z,4.28
2022-08-14T15:04:38.528Z,4.50
2022-08-14T15:07:07.680Z,4.93
2022-08-14T15:09:35.827Z,4.90
2022-08-14T15:12:16.080Z,4.88
2022-08-14T15:14:56.912Z,4.78
2022-08-14T15:17:28.603Z,5.10
2022-08-14T15:20:04.969Z,4.88
2022-08-14T15:22:34.959Z,5.00
2022-08-14T15:25:02.759Z,5.45
2022-08-14T15:27:31.563Z,5.07
2022-08-14T15:30:00.915Z,4.15
2022-08-14T15:32:30.444Z,4.72
2022-08-14T15:35:00.564Z,5.38
2022-08-14T15:37:32.683Z,5.00
2022-08-14T15:40:03.257Z,4.50
2022-08-14T15:42:43.977Z,5.28
2022-08-14T15:45:12.735Z,4.75
2022-08-14T15:47:43.035Z,4.35
2022-08-14T15:50:12.027Z,4.90
2022-08-14T15:52:42.962Z,4.80
2022-08-14T15:55:16.147Z,4.68
2022-08-14T15:57:51.402Z,4.85
2022-08-14T16:00:49.688Z,4.57
2022-08-14T16:03:27.497Z,4.95
2022-08-14T16:06:04.209Z,5.13
2022-08-14T16:08:32.098Z,4.10
2022-08-14T16:11:03.209Z,5.38
2022-08-14T16:13:41.071Z,5.38
2022-08-14T16:16:34.655Z,4.78
2022-08-14T16:19:07.537Z,4.95
2022-08-14T16:21:40.353Z,5.60
2022-08-14T16:24:27.770Z,5.43
2022-08-14T16:27:01.010Z,5.32
2022-08-14T16:29:29.807Z,4.82
2022-08-14T16:31:59.093Z,4.78
2022-08-14T16:34:43.997Z,4.95
2022-08-14T16:37:16.816Z,5.30
2022-08-14T16:39:45.175Z,5.00
2022-08-14T16:42:38.935Z,5.78
2022-08-14T16:45:03.218Z,5.47
2022-08-14T16:47:34.903Z,5.88
2022-08-14T16:50:08.493Z,5.82
2022-08-14T16:52:44.418Z,5.15
2022-08-14T16:55:25.646Z,5.57
2022-08-14T16:57:59.728Z,6.20
2022-08-14T17:00:29.113Z,5.93
2022-08-14T17:03:01.249Z,5.75
2022-08-14T17:05:29.412Z,6.40
2022-08-14T17:08:31.705Z,6.28
2022-08-14T17:11:11.061Z,5.57
2022-08-14T17:13:59.818Z,5.53
2022-08-14T17:16:30.971Z,5.95
2022-08-14T17:19:01.768Z,5.57
2022-08-14T17:21:32.352Z,6.70
2022-08-14T17:24:01.290Z,6.00
2022-08-14T17:26:50.883Z,5.68
2022-08-14T17:29:29.438Z,6.10
2022-08-14T17:32:01.790Z,6.47
2022-08-14T17:34:44.373Z,6.30
2022-08-14T17:37:24.293Z,5.63
2022-08-14T17:40:00.754Z,5.65
2022-08-14T17:42:51.158Z,6.07
2022-08-14T17:45:26.865Z,6.13
2022-08-14T17:47:59.188Z,6.45
2022-08-14T17:51:00.202Z,5.95
2022-08-14T17:53:30.601Z,8.05
2022-08-14T17:56:03.151Z,5.88
2022-08-14T17:58:41.840Z,6.03
2022-08-14T18:01:14.051Z,6.25
2022-08-14T18:03:44.796Z,5.87
2022-08-14T18:06:39.413Z,5.82
2022-08-14T18:09:24.703Z,5.95
2022-08-14T18:11:54.053Z,5.80
2022-08-14T18:14:32.846Z,5.55
2022-08-14T18:17:02.847Z,6.00
2022-08-14T18:19:31.491Z,5.72
2022-08-14T18:22:05.750Z,6.82
2022-08-14T18:24:53.526Z,6.25
2022-08-14T18:27:23.441Z,6.18
2022-08-14T18:29:55.019Z,5.60
2022-08-14T18:32:46.998Z,7.63
2022-08-14T18:35:17.622Z,5.93
2022-08-14T18:37:55.789Z,5.93
2022-08-14T18:40:34.410Z,6.22
2022-08-14T18:43:03.654Z,6.78
2022-08-14T18:45:32.920Z,6.53
2022-08-14T18:48:28.701Z,5.85
2022-08-14T18:51:14.993Z,6.15
2022-08-14T18:53:54.734Z,7.97
2022-08-14T18:56:37.418Z,5.47
2022-08-14T18:59:27.740Z,6.80
2022-08-14T19:02:22.168Z,6.43
2022-08-14T19:05:02.717Z,5.90
2022-08-14T19:07:34.047Z,6.43
2022-08-14T19:10:03.499Z,6.72
2022-08-14T19:12:50.003Z,6.28
2022-08-14T19:15:20.243Z,6.18
2022-08-14T19:18:14.301Z,7.53
2022-08-14T19:20:52.977Z,6.88
2022-08-14T19:23:23.019Z,6.65
2022-08-14T19:25:52.379Z,7.05
2022-08-14T19:28:31.077Z,6.35
2022-08-14T19:31:21.031Z,7.15
2022-08-14T19:33:52.101Z,6.90
2022-08-14T19:36:31.791Z,7.10
2022-08-14T19:39:11.632Z,7.57
2022-08-14T19:41:41.088Z,7.30
2022-08-14T19:44:20.712Z,6.57
2022-08-14T19:47:04.818Z,6.45
2022-08-14T19:50:25.025Z,7.38
2022-08-14T19:52:29.867Z,7.65
2022-08-14T19:54:58.628Z,6.60
2022-08-14T19:57:28.968Z,9.27
2022-08-14T20:00:01.905Z,6.53
2022-08-14T20:02:37.405Z,6.78
2022-08-14T20:07:59.912Z,7.00
2022-08-14T20:11:03.117Z,7.97
2022-08-14T20:13:15.104Z,6.95
2022-08-14T20:15:52.075Z,6.75
2022-08-14T20:18:48.736Z,6.32
2022-08-14T20:21:13.657Z,6.45
2022-08-14T20:23:44.023Z,6.70
2022-08-14T20:26:30.947Z,7.32
2022-08-14T20:29:04.359Z,7.25
2022-08-14T20:31:37.436Z,6.50
2022-08-14T20:34:18.789Z,7.10
2022-08-14T20:37:00.943Z,6.43
2022-08-14T20:39:34.517Z,7.25
2022-08-14T20:42:23.637Z,7.22
2022-08-14T20:45:13.202Z,7.35
2022-08-14T20:47:48.238Z,6.55
2022-08-14T20:50:28.616Z,6.90
2022-08-14T20:52:57.508Z,7.35
2022-08-14T20:55:29.958Z,7.63
2022-08-14T20:57:58.955Z,6.90
2022-08-14T21:00:36.946Z,6.28
2022-08-14T21:03:23.987Z,6.70
2022-08-14T21:05:59.144Z,7.00
2022-08-14T21:08:27.019Z,6.25
2022-08-14T21:10:56.621Z,6.85
2022-08-14T21:14:08.694Z,6.90
2022-08-14T21:16:34.303Z,7.60
2022-08-14T21:19:01.875Z,7.38
2022-08-14T21:21:40.666Z,6.88
2022-08-14T21:24:39.293Z,6.72
2022-08-14T21:27:02.050Z,7.53
2022-08-14T21:29:32.686Z,7.38
2022-08-14T21:32:00.506Z,7.60
2022-08-14T21:34:32.516Z,7.00
2022-08-14T21:37:09.270Z,7.18
2022-08-14T21:39:37.999Z,7.10
2022-08-14T21:42:06.981Z,6.93
2022-08-14T21:47:12.479Z,7.93
2022-08-14T21:49:43.165Z,7.47
2022-08-14T21:52:50.239Z,6.93
2022-08-14T21:55:09.041Z,7.45
2022-08-14T21:57:55.905Z,7.40
2022-08-14T22:00:30.179Z,7.28
2022-08-14T22:02:59.356Z,7.70
2022-08-14T22:05:27.464Z,7.35
2022-08-14T22:07:58.592Z,7.13
2022-08-14T22:10:27.425Z,8.95
2022-08-14T22:13:00.694Z,7.43
2022-08-14T22:15:30.777Z,7.45
2022-08-14T22:17:59.407Z,8.18
2022-08-14T22:20:29.150Z,7.60
2022-08-14T22:22:58.960Z,7.22
2022-08-14T22:25:34.049Z,7.50
2022-08-14T22:28:04.208Z,7.20
2022-08-14T22:30:32.242Z,7.82
2022-08-14T22:33:00.556Z,7.40
2022-08-14T22:35:29.264Z,7.95
2022-08-14T22:38:34.457Z,7.40
2022-08-14T22:41:04.548Z,7.32
2022-08-14T22:43:36.070Z,7.00
2022-08-14T22:46:06.224Z,7.18
2022-08-14T22:48:44.510Z,7.05
2022-08-14T22:51:13.438Z,7.78
2022-08-14T22:53:43.541Z,7.75
2022-08-14T22:56:20.755Z,6.95
2022-08-14T22:58:54.252Z,7.45
2022-08-14T23:01:24.425Z,7.03
2022-08-14T23:04:12.366Z,7.28
2022-08-14T23:07:04.737Z,7.10
2022-08-14T23:09:38.203Z,6.57
2022-08-14T23:12:27.707Z,8.20
2022-08-14T23:14:56.420Z,7.70
2022-08-14T23:17:24.500Z,7.15
2022-08-14T23:19:56.510Z,7.95
2022-08-14T23:22:26.076Z,8.13
2022-08-14T23:24:56.751Z,7.47
2022-08-14T23:27:31.921Z,7.18
2022-08-14T23:30:34.481Z,7.45
2022-08-14T23:33:03.165Z,8.35
2022-08-14T23:35:33.071Z,7.70
2022-08-14T23:38:03.109Z,8.07
2022-08-14T23:40:32.614Z,7.45
2022-08-14T23:43:04.631Z,8.10
2022-08-14T23:45:36.959Z,7.15
2022-08-14T23:48:05.736Z,8.20
2022-08-14T23:50:40.838Z,7.72
2022-08-14T23:53:28.448Z,7.68
2022-08-14T23:56:06.212Z,8.00
2022-08-14T23:58:37.082Z,7.28
